This is the latest recevied weather packets stored in our database for station/object OE2SWM. If no packets are shown the sender has not sent any weather packets the latest 10 day(s).
| Time | Temp. | Humidity | Pressure | Rain* | Wind** | Luminosity | Snow |
|---|---|---|---|---|---|---|---|
| 1778131200 | 18.89° C | 56% | 967 hPa | 0 mm | - | - | - |
| 1778130600 | 13.89° C | 73% | 967 hPa | 0 mm | - | - | - |
| 1778130000 | 10.56° C | 80% | 967 hPa | 0 mm | - | - | - |
| 1778129400 | 8.89° C | 84% | 967 hPa | 0 mm | - | - | - |
| 1778128800 | 6.67° C | 89% | 967 hPa | 0 mm | - | - | - |
| 1778128200 | 6.67° C | 89% | 967 hPa | 0 mm | - | - | - |
| 1778127600 | 6.67° C | 90% | 967 hPa | 0 mm | - | - | - |
| 1778127000 | 6.67° C | 92% | 967 hPa | 0 mm | - | - | - |
| 1778126400 | 6.67° C | 88% | 967 hPa | 0 mm | - | - | - |
| 1778125800 | 6.67° C | 89% | 967 hPa | 0 mm | - | - | - |
| 1778125200 | 6.67° C | 89% | 967 hPa | 0 mm | - | - | - |
| 1778124600 | 6.67° C | 90% | 967 hPa | 0 mm | - | - | - |
| 1778124000 | 6.67° C | 89% | 967 hPa | 0 mm | - | - | - |
| 1778123400 | 6.67° C | 91% | 967 hPa | 0 mm | - | - | - |
| 1778122800 | 5.56° C | 90% | 966 hPa | 0 mm | - | - | - |
| 1778122200 | 5.56° C | 91% | 966 hPa | 0 mm | - | - | - |
| 1778121600 | 5.56° C | 91% | 966 hPa | 0 mm | - | - | - |
| 1778121000 | 5.56° C | 91% | 966 hPa | 0 mm | - | - | - |
| 1778120400 | 5.56° C | 93% | 966 hPa | 0 mm | - | - | - |
| 1778119800 | 5.56° C | 91% | 966 hPa | 0 mm | - | - | - |
| 1778119200 | 5.56° C | 92% | 966 hPa | 0 mm | - | - | - |
| 1778118600 | 5.56° C | 92% | 966 hPa | 0 mm | - | - | - |
| 1778118000 | 5° C | 94% | 966 hPa | 0 mm | - | - | - |
| 1778117400 | 5.56° C | 90% | 966 hPa | 0 mm | - | - | - |
| 1778116800 | 5° C | 94% | 966 hPa | 0 mm | - | - | - |
* Rain latest hour (hover to see other rain measurements)
** Current wind speed in m/s (hover to see current wind gust speed)